Time;durP1;ratioP1;P1;durP2;ratioP2;P2;SDS_P1;SDS_P2;PMS_P1;PMS_P2;Temp;Humidity;BMP_temperature;BMP_pressure;BME280_temperature;BME280_humidity;BME280_pressure;Samples;Min_cycle;Max_cycle;Signal;HPM_P1;HPM_P2
2021/08/14 00:02:18;;;;;;;;;;;17.20;99.90;;;;;;5174243;27;20348;-87
2021/08/14 00:04:44;;;;;;;;;;;17.20;99.90;;;;;;5156205;27;19941;-86
2021/08/14 00:07:10;;;;;;;;;;;17.20;99.90;;;;;;5154428;27;19946;-87
2021/08/14 00:09:36;;;;;;;;;;;17.20;99.90;;;;;;5154271;27;20382;-88
2021/08/14 00:12:03;;;;;;;;;;;17.20;99.90;;;;;;5135473;27;19926;-87
2021/08/14 00:14:29;;;;;;;;;;;17.20;99.90;;;;;;5154030;27;19923;-87
2021/08/14 00:16:54;;;;;;;;;;;17.20;99.90;;;;;;5153427;27;19923;-87
2021/08/14 00:19:20;;;;;;;;;;;17.20;99.90;;;;;;5134681;27;19923;-87
2021/08/14 00:21:46;;;;;;;;;;;17.20;99.90;;;;;;5135545;27;19926;-87
2021/08/14 00:24:11;;;;;;;;;;;17.10;99.90;;;;;;5153487;27;19926;-87
2021/08/14 00:26:37;;;;;;;;;;;17.20;99.90;;;;;;5136764;27;19954;-87
2021/08/14 00:29:03;;;;;;;;;;;17.20;99.90;;;;;;5118208;27;19945;-87
2021/08/14 00:31:29;;;;;;;;;;;17.10;99.90;;;;;;5134590;27;20014;-88
2021/08/14 00:33:55;;;;;;;;;;;17.10;99.90;;;;;;5155275;27;19923;-87
2021/08/14 00:36:21;;;;;;;;;;;17.10;99.90;;;;;;5174217;27;19967;-87
2021/08/14 00:38:47;;;;;;;;;;;17.10;99.90;;;;;;5174551;27;19927;-87
2021/08/14 00:41:12;;;;;;;;;;;17.10;99.90;;;;;;5174273;27;20166;-87
2021/08/14 00:43:39;;;;;;;;;;;17.10;99.90;;;;;;5174275;27;19922;-87
2021/08/14 00:46:05;;;;;;;;;;;17.10;99.90;;;;;;5173978;27;20406;-87
2021/08/14 00:48:31;;;;;;;;;;;17.00;99.90;;;;;;5171318;27;19958;-87
2021/08/14 00:50:58;;;;;;;;;;;17.00;99.90;;;;;;5153142;27;20382;-87
2021/08/14 00:53:24;;;;;;;;;;;17.00;99.90;;;;;;5153216;27;19919;-87
2021/08/14 00:55:51;;;;;;;;;;;17.00;99.90;;;;;;5173167;27;20385;-87
2021/08/14 00:58:16;;;;;;;;;;;17.00;99.90;;;;;;5155603;27;19915;-87
2021/08/14 01:00:43;;;;;;;;;;;17.00;99.90;;;;;;5154973;27;20381;-87
2021/08/14 01:03:08;;;;;;;;;;;17.00;99.90;;;;;;5174076;27;20294;-87
2021/08/14 01:05:45;;;;;;;;;;;16.90;99.90;;;;;;5154198;27;19983;-87
2021/08/14 01:08:12;;;;;;;;;;;16.90;99.90;;;;;;5155335;27;19919;-87
2021/08/14 01:10:37;;;;;;;;;;;16.90;99.90;;;;;;5173706;27;19918;-87
2021/08/14 01:13:03;;;;;;;;;;;17.00;99.90;;;;;;5173733;27;20365;-87
2021/08/14 01:15:29;;;;;;;;;;;16.90;99.90;;;;;;5137262;27;19923;-87
2021/08/14 01:17:55;;;;;;;;;;;16.90;99.90;;;;;;5155278;27;20294;-87
2021/08/14 01:20:20;;;;;;;;;;;16.90;99.90;;;;;;5172375;27;19964;-87
2021/08/14 01:22:46;;;;;;;;;;;17.00;99.90;;;;;;5154943;27;20503;-87
2021/08/14 01:25:12;;;;;;;;;;;17.00;99.90;;;;;;5154541;27;19919;-87
2021/08/14 01:27:38;;;;;;;;;;;17.00;99.90;;;;;;5133764;27;19923;-87
2021/08/14 01:30:04;;;;;;;;;;;17.00;99.90;;;;;;5116588;27;19971;-87
2021/08/14 01:32:30;;;;;;;;;;;17.00;99.90;;;;;;5152380;27;20370;-89
2021/08/14 01:34:57;;;;;;;;;;;17.00;99.90;;;;;;5133353;27;19971;-87
2021/08/14 01:37:23;;;;;;;;;;;17.10;99.90;;;;;;5152691;27;19955;-87
2021/08/14 01:39:48;;;;;;;;;;;17.10;99.90;;;;;;5152481;27;20363;-87
2021/08/14 01:42:14;;;;;;;;;;;17.10;99.90;;;;;;5134076;27;20390;-87
2021/08/14 01:44:40;;;;;;;;;;;17.10;99.90;;;;;;5162008;27;20450;-87
2021/08/14 01:47:06;;;;;;;;;;;17.20;99.90;;;;;;5171318;27;19926;-87
2021/08/14 01:49:32;;;;;;;;;;;17.10;99.90;;;;;;5154137;27;19919;-87
2021/08/14 01:51:58;;;;;;;;;;;17.20;99.90;;;;;;5158107;27;19958;-87
2021/08/14 01:54:24;;;;;;;;;;;17.10;99.90;;;;;;5152067;27;19962;-87
2021/08/14 01:56:50;;;;;;;;;;;17.20;99.90;;;;;;5164802;27;20516;-87
2021/08/14 01:59:16;;;;;;;;;;;17.20;99.90;;;;;;5172103;27;19923;-87
2021/08/14 02:01:42;;;;;;;;;;;17.20;99.90;;;;;;5151997;27;20461;-87
2021/08/14 02:04:07;;;;;;;;;;;17.20;99.90;;;;;;5151922;27;19919;-87
2021/08/14 02:06:33;;;;;;;;;;;17.20;99.90;;;;;;5151438;27;19928;-87
2021/08/14 02:08:59;;;;;;;;;;;17.20;99.90;;;;;;5133374;27;20009;-87
2021/08/14 02:11:26;;;;;;;;;;;17.20;99.90;;;;;;5151903;27;19923;-87
2021/08/14 02:13:52;;;;;;;;;;;17.30;99.90;;;;;;5151725;27;19930;-87
2021/08/14 02:16:18;;;;;;;;;;;17.20;99.90;;;;;;5152573;27;19919;-87
2021/08/14 02:18:44;;;;;;;;;;;17.30;99.90;;;;;;5133243;27;19923;-87
2021/08/14 02:21:10;;;;;;;;;;;17.20;99.90;;;;;;5151216;27;19929;-87
2021/08/14 02:23:36;;;;;;;;;;;17.20;99.90;;;;;;5145566;27;20552;-87
2021/08/14 02:26:02;;;;;;;;;;;17.30;99.90;;;;;;5151125;27;20300;-87
2021/08/14 02:28:28;;;;;;;;;;;17.30;99.90;;;;;;5153975;27;20013;-87
2021/08/14 02:30:54;;;;;;;;;;;17.30;99.90;;;;;;5170459;27;19925;-87
2021/08/14 02:33:20;;;;;;;;;;;17.30;99.90;;;;;;5172330;27;19975;-87
2021/08/14 02:35:46;;;;;;;;;;;17.30;99.90;;;;;;5153778;27;19923;-87
2021/08/14 02:38:12;;;;;;;;;;;17.30;99.90;;;;;;5132865;27;20266;-87
2021/08/14 02:40:37;;;;;;;;;;;17.30;99.90;;;;;;5151324;27;20002;-87
2021/08/14 02:43:03;;;;;;;;;;;17.30;99.90;;;;;;5152376;27;19935;-87
2021/08/14 02:45:29;;;;;;;;;;;17.40;99.90;;;;;;5153485;27;19918;-87
2021/08/14 02:47:56;;;;;;;;;;;17.40;99.90;;;;;;5171394;27;19923;-87
2021/08/14 02:50:22;;;;;;;;;;;17.40;99.90;;;;;;5153432;27;19971;-87
2021/08/14 02:52:49;;;;;;;;;;;17.40;99.90;;;;;;5170766;27;20385;-87
2021/08/14 02:55:15;;;;;;;;;;;17.40;99.90;;;;;;5170854;27;19923;-87
2021/08/14 02:57:40;;;;;;;;;;;17.40;99.90;;;;;;5152744;27;19956;-87
2021/08/14 03:00:06;;;;;;;;;;;17.40;99.90;;;;;;5152028;27;20022;-87
2021/08/14 03:02:33;;;;;;;;;;;17.40;99.90;;;;;;5152071;27;19936;-87
2021/08/14 03:04:58;;;;;;;;;;;17.40;99.90;;;;;;5132348;27;19923;-87
2021/08/14 03:07:24;;;;;;;;;;;17.40;99.90;;;;;;5132052;27;19926;-87
2021/08/14 03:09:50;;;;;;;;;;;17.40;99.90;;;;;;5115133;27;19972;-87
2021/08/14 03:12:16;;;;;;;;;;;17.40;99.90;;;;;;5151341;27;19923;-87
2021/08/14 03:14:42;;;;;;;;;;;17.40;99.90;;;;;;5132329;27;19919;-87
2021/08/14 03:17:08;;;;;;;;;;;17.40;99.90;;;;;;5151722;27;20447;-87
2021/08/14 03:19:33;;;;;;;;;;;17.50;99.90;;;;;;5161523;27;19976;-87
2021/08/14 03:21:59;;;;;;;;;;;17.50;99.90;;;;;;5170883;27;19930;-87
2021/08/14 03:24:25;;;;;;;;;;;17.40;99.90;;;;;;5171447;27;19927;-87
2021/08/14 03:26:51;;;;;;;;;;;17.40;99.90;;;;;;5140289;27;19919;-87
2021/08/14 03:29:17;;;;;;;;;;;17.40;99.90;;;;;;5151707;27;19964;-87
2021/08/14 03:31:43;;;;;;;;;;;17.40;99.90;;;;;;5150728;27;19944;-87
2021/08/14 03:34:08;;;;;;;;;;;17.50;99.90;;;;;;5131943;27;19927;-87
2021/08/14 03:36:34;;;;;;;;;;;17.50;99.90;;;;;;5131855;27;20285;-87
2021/08/14 03:39:00;;;;;;;;;;;17.40;99.90;;;;;;5150131;27;20472;-87
2021/08/14 03:41:26;;;;;;;;;;;17.50;99.90;;;;;;5116286;27;20298;-87
2021/08/14 03:43:51;;;;;;;;;;;17.50;99.90;;;;;;5132015;27;19991;-87
2021/08/14 03:46:17;;;;;;;;;;;17.50;99.90;;;;;;5132948;27;19926;-87
2021/08/14 03:48:43;;;;;;;;;;;17.50;99.90;;;;;;5119290;27;19918;-87
2021/08/14 03:51:08;;;;;;;;;;;17.50;99.90;;;;;;5150113;27;20385;-86
2021/08/14 03:53:38;;;;;;;;;;;17.50;99.90;;;;;;5150134;27;19927;-87
2021/08/14 03:56:03;;;;;;;;;;;17.50;99.90;;;;;;5168854;27;19918;-87
2021/08/14 03:58:33;;;;;;;;;;;17.50;99.90;;;;;;5171216;27;19929;-87
2021/08/14 04:00:59;;;;;;;;;;;17.50;99.90;;;;;;5170878;27;20544;-87
2021/08/14 04:03:25;;;;;;;;;;;17.50;99.90;;;;;;5171079;27;19933;-87
2021/08/14 04:05:51;;;;;;;;;;;17.50;99.90;;;;;;5165683;27;20404;-87
2021/08/14 04:08:17;;;;;;;;;;;17.50;99.90;;;;;;5149925;27;19930;-87
2021/08/14 04:10:43;;;;;;;;;;;17.50;99.90;;;;;;5151472;27;20288;-87
2021/08/14 04:13:08;;;;;;;;;;;17.50;99.90;;;;;;5131913;27;19919;-87
2021/08/14 04:15:36;;;;;;;;;;;17.40;99.90;;;;;;5141736;27;20308;-87
2021/08/14 04:18:02;;;;;;;;;;;17.50;99.90;;;;;;5170909;27;19944;-87
2021/08/14 04:20:28;;;;;;;;;;;17.50;99.90;;;;;;5157796;27;20301;-87
2021/08/14 04:22:54;;;;;;;;;;;17.50;99.90;;;;;;5150693;27;19954;-88
2021/08/14 04:25:20;;;;;;;;;;;17.50;99.90;;;;;;5154093;27;19970;-86
2021/08/14 04:27:46;;;;;;;;;;;17.50;99.90;;;;;;5153938;27;19972;-87
2021/08/14 04:30:11;;;;;;;;;;;17.50;99.90;;;;;;5153634;27;19974;-87
2021/08/14 04:32:40;;;;;;;;;;;17.40;99.90;;;;;;5135584;27;20014;-87
2021/08/14 04:35:10;;;;;;;;;;;17.40;99.90;;;;;;5154463;27;19919;-87
2021/08/14 04:37:35;;;;;;;;;;;17.40;99.90;;;;;;5153497;27;19925;-88
2021/08/14 04:40:03;;;;;;;;;;;17.40;99.90;;;;;;5149681;27;19998;-88
2021/08/14 04:42:29;;;;;;;;;;;17.40;99.90;;;;;;5174746;27;20038;-87
2021/08/14 04:44:55;;;;;;;;;;;17.30;99.90;;;;;;5172265;27;20737;-87
2021/08/14 04:47:20;;;;;;;;;;;17.30;99.90;;;;;;5172504;27;20297;-87
2021/08/14 04:49:46;;;;;;;;;;;17.30;99.90;;;;;;5155534;27;19922;-88
2021/08/14 04:52:12;;;;;;;;;;;17.30;99.90;;;;;;5157624;27;19937;-87
2021/08/14 04:54:38;;;;;;;;;;;17.30;99.90;;;;;;5117677;27;19927;-87
2021/08/14 04:57:04;;;;;;;;;;;17.30;99.90;;;;;;5153531;27;19926;-87
2021/08/14 04:59:31;;;;;;;;;;;17.30;99.90;;;;;;5153444;27;19919;-87
2021/08/14 05:01:57;;;;;;;;;;;17.30;99.90;;;;;;5147231;27;20373;-87
2021/08/14 05:04:23;;;;;;;;;;;17.30;99.90;;;;;;5174268;27;20335;-87
2021/08/14 05:06:50;;;;;;;;;;;17.40;99.90;;;;;;5154793;27;19927;-87
2021/08/14 05:09:16;;;;;;;;;;;17.40;99.90;;;;;;5167407;27;19929;-87
2021/08/14 05:11:42;;;;;;;;;;;17.40;99.90;;;;;;5153494;27;19919;-87
2021/08/14 05:14:07;;;;;;;;;;;17.40;99.90;;;;;;5134289;27;20289;-86
2021/08/14 05:16:36;;;;;;;;;;;17.50;99.90;;;;;;5154271;27;19929;-87
2021/08/14 05:19:02;;;;;;;;;;;17.50;99.90;;;;;;5152840;27;20370;-86
2021/08/14 05:21:29;;;;;;;;;;;17.50;99.90;;;;;;5152850;27;19931;-87
2021/08/14 05:23:55;;;;;;;;;;;17.50;99.90;;;;;;5152340;27;19981;-87
2021/08/14 05:26:21;;;;;;;;;;;17.50;99.90;;;;;;5153937;27;19954;-87
2021/08/14 05:28:47;;;;;;;;;;;17.50;99.90;;;;;;5152395;27;19971;-87
2021/08/14 05:31:12;;;;;;;;;;;17.60;99.90;;;;;;5135300;27;19923;-87
2021/08/14 05:33:38;;;;;;;;;;;17.60;99.90;;;;;;5152669;27;19925;-87
2021/08/14 05:36:04;;;;;;;;;;;17.60;99.90;;;;;;5158134;27;20025;-87
2021/08/14 05:38:30;;;;;;;;;;;17.60;99.90;;;;;;5171211;27;20013;-88
2021/08/14 05:40:56;;;;;;;;;;;17.60;99.90;;;;;;5122147;27;20461;-87
2021/08/14 05:43:21;;;;;;;;;;;17.60;99.90;;;;;;5152511;27;20278;-88
2021/08/14 05:45:47;;;;;;;;;;;17.60;99.90;;;;;;5133799;27;19927;-87
2021/08/14 05:48:13;;;;;;;;;;;17.60;99.90;;;;;;5151954;27;19993;-88
2021/08/14 05:50:39;;;;;;;;;;;17.60;99.90;;;;;;5166296;27;19922;-87
2021/08/14 05:53:05;;;;;;;;;;;17.60;99.90;;;;;;5125655;27;20710;-88
2021/08/14 05:55:35;;;;;;;;;;;17.60;99.90;;;;;;5133785;27;20341;-87
2021/08/14 05:58:00;;;;;;;;;;;17.70;99.90;;;;;;5133580;27;19923;-88
2021/08/14 06:00:26;;;;;;;;;;;17.70;99.90;;;;;;5154247;27;19929;-87
2021/08/14 06:02:52;;;;;;;;;;;17.70;99.90;;;;;;5150149;27;19919;-88
2021/08/14 06:05:20;;;;;;;;;;;17.70;99.90;;;;;;5145852;27;19926;-87
2021/08/14 06:07:49;;;;;;;;;;;17.70;99.90;;;;;;5161080;27;19929;-88
2021/08/14 06:10:16;;;;;;;;;;;17.70;99.90;;;;;;5141003;27;19923;-90
2021/08/14 06:12:42;;;;;;;;;;;17.70;99.90;;;;;;5139387;27;19971;-90
2021/08/14 06:15:07;;;;;;;;;;;17.80;99.90;;;;;;5116011;27;19927;-90
2021/08/14 06:17:33;;;;;;;;;;;17.80;99.90;;;;;;5116817;27;19962;-89
2021/08/14 06:19:59;;;;;;;;;;;17.80;99.90;;;;;;5117182;27;19953;-90
2021/08/14 06:22:25;;;;;;;;;;;17.90;99.90;;;;;;5118344;27;19923;-91
2021/08/14 06:24:52;;;;;;;;;;;17.90;99.90;;;;;;5142853;27;19930;-91
2021/08/14 06:27:18;;;;;;;;;;;18.00;99.90;;;;;;5119670;27;20360;-91
2021/08/14 06:29:44;;;;;;;;;;;18.00;99.90;;;;;;5116839;27;20038;-91
2021/08/14 06:32:10;;;;;;;;;;;18.00;99.90;;;;;;5131089;27;19999;-91
2021/08/14 06:34:36;;;;;;;;;;;18.00;99.90;;;;;;5152919;27;19929;-91
2021/08/14 06:37:02;;;;;;;;;;;18.00;99.90;;;;;;5125224;27;19919;-91
2021/08/14 06:39:27;;;;;;;;;;;18.10;99.90;;;;;;5125944;27;19967;-92
2021/08/14 06:41:53;;;;;;;;;;;18.00;99.90;;;;;;5118617;27;19927;-91
2021/08/14 06:44:19;;;;;;;;;;;18.00;99.90;;;;;;5123286;27;19927;-91
2021/08/14 06:46:44;;;;;;;;;;;18.10;99.90;;;;;;5108131;27;19923;-90
2021/08/14 06:49:10;;;;;;;;;;;18.10;99.90;;;;;;5124834;27;19951;-91
2021/08/14 06:51:39;;;;;;;;;;;18.10;99.90;;;;;;5141499;27;19923;-91
2021/08/14 06:54:04;;;;;;;;;;;18.20;99.90;;;;;;5109417;27;19929;-91
2021/08/14 06:56:34;;;;;;;;;;;18.20;99.90;;;;;;5120208;27;19935;-90
2021/08/14 06:59:00;;;;;;;;;;;18.20;99.90;;;;;;5132993;27;20416;-91
2021/08/14 07:01:26;;;;;;;;;;;18.30;99.90;;;;;;5143348;27;20380;-91
2021/08/14 07:03:52;;;;;;;;;;;18.30;99.90;;;;;;5137224;27;19923;-90
2021/08/14 07:06:19;;;;;;;;;;;18.30;99.90;;;;;;5125245;27;19930;-90
2021/08/14 07:08:44;;;;;;;;;;;18.40;99.90;;;;;;5115728;27;19945;-90
2021/08/14 07:11:10;;;;;;;;;;;18.40;99.90;;;;;;5120211;27;19923;-90
2021/08/14 07:13:36;;;;;;;;;;;18.40;99.90;;;;;;5098790;27;19923;-88
2021/08/14 07:16:01;;;;;;;;;;;18.40;99.90;;;;;;5132153;27;19925;-87
2021/08/14 07:18:27;;;;;;;;;;;18.40;99.90;;;;;;5137099;27;19923;-88
2021/08/14 07:20:53;;;;;;;;;;;18.50;99.90;;;;;;5132716;27;19923;-93
2021/08/14 07:23:18;;;;;;;;;;;18.50;99.90;;;;;;5111204;27;19924;-90
2021/08/14 07:25:44;;;;;;;;;;;18.50;99.90;;;;;;5131850;27;20059;-90
2021/08/14 07:28:10;;;;;;;;;;;18.50;99.90;;;;;;5129673;28;19926;-89
2021/08/14 07:30:35;;;;;;;;;;;18.50;99.90;;;;;;5111694;27;20378;-89
2021/08/14 07:33:01;;;;;;;;;;;18.60;99.90;;;;;;5112240;28;19941;-89
2021/08/14 07:35:27;;;;;;;;;;;18.60;99.90;;;;;;5094300;27;19919;-90
2021/08/14 07:37:53;;;;;;;;;;;18.60;99.90;;;;;;5112028;28;19920;-89
2021/08/14 07:40:25;;;;;;;;;;;18.60;99.90;;;;;;5129696;27;19920;-91
2021/08/14 07:42:54;;;;;;;;;;;18.60;99.90;;;;;;5116500;27;19926;-89
2021/08/14 07:45:20;;;;;;;;;;;18.70;99.90;;;;;;5120844;27;19931;-96
2021/08/14 07:47:48;;;;;;;;;;;18.70;99.90;;;;;;5115365;28;19926;-89
2021/08/14 07:52:55;;;;;;;;;;;18.80;99.90;;;;;;5078553;28;19951;-87
2021/08/14 07:55:21;;;;;;;;;;;18.80;99.90;;;;;;5045199;28;19928;-86
2021/08/14 07:57:48;;;;;;;;;;;18.80;99.90;;;;;;5033959;28;19934;-86
2021/08/14 08:00:15;;;;;;;;;;;18.90;99.90;;;;;;5060859;28;19946;-86
2021/08/14 08:02:41;;;;;;;;;;;18.90;99.90;;;;;;5061630;28;19924;-86
2021/08/14 08:05:08;;;;;;;;;;;18.90;99.90;;;;;;5053034;28;19966;-86
2021/08/14 08:07:34;;;;;;;;;;;18.90;99.90;;;;;;5037741;28;19950;-87
2021/08/14 08:10:02;;;;;;;;;;;18.90;99.90;;;;;;5054582;28;20342;-88
2021/08/14 08:12:28;;;;;;;;;;;18.90;99.90;;;;;;5057247;28;20699;-87
2021/08/14 08:14:54;;;;;;;;;;;18.90;99.90;;;;;;5074309;28;19974;-87
2021/08/14 08:17:19;;;;;;;;;;;19.00;99.90;;;;;;5072149;28;19959;-86
2021/08/14 08:19:45;;;;;;;;;;;19.00;99.90;;;;;;5057758;28;19946;-86
2021/08/14 08:22:11;;;;;;;;;;;19.10;99.90;;;;;;5040712;28;19966;-87
2021/08/14 08:24:36;;;;;;;;;;;19.10;99.90;;;;;;5057839;28;19928;-87
2021/08/14 08:27:02;;;;;;;;;;;19.10;99.90;;;;;;5044762;28;19925;-86
2021/08/14 08:29:28;;;;;;;;;;;19.20;99.90;;;;;;5063134;28;20398;-87
2021/08/14 08:31:53;;;;;;;;;;;19.20;99.90;;;;;;5054078;28;19924;-87
2021/08/14 08:34:23;;;;;;;;;;;19.20;99.90;;;;;;5072248;28;20022;-86
2021/08/14 08:36:50;;;;;;;;;;;19.30;99.90;;;;;;5089927;28;19947;-86
2021/08/14 08:39:15;;;;;;;;;;;19.30;99.90;;;;;;5038506;28;19923;-88
2021/08/14 08:41:41;;;;;;;;;;;19.40;99.90;;;;;;5027488;28;20264;-87
2021/08/14 08:44:07;;;;;;;;;;;19.40;99.90;;;;;;5037492;28;20018;-86
2021/08/14 08:46:33;;;;;;;;;;;19.40;99.90;;;;;;5052735;28;19924;-87
2021/08/14 08:48:59;;;;;;;;;;;19.40;99.90;;;;;;5061418;28;19973;-87
2021/08/14 08:51:26;;;;;;;;;;;19.40;99.90;;;;;;5061739;28;19971;-87
2021/08/14 08:53:52;;;;;;;;;;;19.40;99.90;;;;;;5035274;28;20427;-86
2021/08/14 08:56:17;;;;;;;;;;;19.30;99.90;;;;;;5044599;28;19917;-86
2021/08/14 08:58:44;;;;;;;;;;;19.30;99.90;;;;;;5016353;28;19935;-87
2021/08/14 09:01:09;;;;;;;;;;;19.20;99.90;;;;;;5016539;28;19920;-87
2021/08/14 09:03:35;;;;;;;;;;;19.20;99.90;;;;;;5016948;28;19971;-86
2021/08/14 09:06:01;;;;;;;;;;;19.10;99.90;;;;;;5034154;28;20380;-87
2021/08/14 09:08:27;;;;;;;;;;;19.10;99.90;;;;;;5016901;28;19929;-87
2021/08/14 09:11:09;;;;;;;;;;;19.10;99.90;;;;;;5040368;28;20372;-87
2021/08/14 09:13:35;;;;;;;;;;;19.10;99.90;;;;;;5051848;28;19924;-86
2021/08/14 09:16:20;;;;;;;;;;;19.20;99.90;;;;;;5035116;28;19924;-86
2021/08/14 09:18:56;;;;;;;;;;;19.20;99.90;;;;;;5033232;28;20387;-86
2021/08/14 09:21:33;;;;;;;;;;;19.40;99.90;;;;;;5029333;28;20327;-86
2021/08/14 09:24:04;;;;;;;;;;;19.50;99.90;;;;;;5045831;28;19962;-87
2021/08/14 09:26:52;;;;;;;;;;;19.60;99.90;;;;;;5043404;28;19924;-86
2021/08/14 09:29:27;;;;;;;;;;;19.70;99.90;;;;;;5069459;28;19924;-86
2021/08/14 09:31:54;;;;;;;;;;;19.70;99.90;;;;;;5028702;28;20006;-86
2021/08/14 09:34:20;;;;;;;;;;;19.70;99.90;;;;;;5033354;28;19925;-87
2021/08/14 09:37:00;;;;;;;;;;;19.80;99.90;;;;;;5009054;28;19925;-86
2021/08/14 09:39:27;;;;;;;;;;;19.80;99.90;;;;;;5050675;28;20307;-86
2021/08/14 09:42:06;;;;;;;;;;;19.80;99.90;;;;;;5035444;28;20376;-86
2021/08/14 09:44:36;;;;;;;;;;;19.70;99.90;;;;;;5049520;28;19928;-86
2021/08/14 09:47:08;;;;;;;;;;;19.70;99.90;;;;;;5029525;28;19929;-88
2021/08/14 09:49:54;;;;;;;;;;;19.80;99.90;;;;;;5065919;28;20286;-87
2021/08/14 09:52:21;;;;;;;;;;;19.80;99.90;;;;;;5061753;28;19924;-86
2021/08/14 09:54:47;;;;;;;;;;;19.90;99.90;;;;;;5055100;28;19973;-87
2021/08/14 09:57:14;;;;;;;;;;;19.90;99.90;;;;;;5031527;28;19923;-86
2021/08/14 09:59:41;;;;;;;;;;;19.90;99.90;;;;;;5066676;28;20173;-87
2021/08/14 10:02:07;;;;;;;;;;;19.80;99.90;;;;;;5066497;28;20031;-82
2021/08/14 10:04:33;;;;;;;;;;;19.80;99.90;;;;;;5054115;28;20011;-83
2021/08/14 10:06:58;;;;;;;;;;;19.70;99.90;;;;;;5058648;28;19924;-83
2021/08/14 10:09:24;;;;;;;;;;;19.80;99.90;;;;;;5067914;28;19931;-82
2021/08/14 10:11:51;;;;;;;;;;;19.90;99.90;;;;;;5052680;28;19930;-81
2021/08/14 10:14:17;;;;;;;;;;;20.00;99.90;;;;;;5069925;28;20280;-82
2021/08/14 10:16:43;;;;;;;;;;;20.20;99.90;;;;;;5070639;28;20402;-83
2021/08/14 10:19:09;;;;;;;;;;;20.30;99.90;;;;;;5052458;28;19924;-82
2021/08/14 10:21:34;;;;;;;;;;;20.40;99.90;;;;;;5083640;28;20013;-83
2021/08/14 10:24:00;;;;;;;;;;;20.30;99.90;;;;;;5051115;28;19932;-83
2021/08/14 10:26:27;;;;;;;;;;;20.30;99.90;;;;;;5053690;28;20616;-82
2021/08/14 10:28:55;;;;;;;;;;;20.30;99.90;;;;;;5071595;28;20417;-82
2021/08/14 10:31:44;;;;;;;;;;;20.10;99.90;;;;;;5060648;28;19924;-83
2021/08/14 10:34:10;;;;;;;;;;;20.10;99.90;;;;;;5045220;28;19931;-82
2021/08/14 10:36:36;;;;;;;;;;;19.90;99.90;;;;;;5068987;28;20322;-82
2021/08/14 10:39:21;;;;;;;;;;;19.90;99.90;;;;;;5051158;28;19924;-82
2021/08/14 10:41:49;;;;;;;;;;;19.90;99.90;;;;;;5078116;28;19968;-83
2021/08/14 10:44:33;;;;;;;;;;;20.10;99.90;;;;;;5071635;28;19924;-82
2021/08/14 10:46:59;;;;;;;;;;;20.30;99.90;;;;;;5069097;28;20732;-82
2021/08/14 10:49:34;;;;;;;;;;;20.50;99.90;;;;;;5061423;28;19924;-82
2021/08/14 10:52:03;;;;;;;;;;;20.50;99.90;;;;;;5058509;28;20057;-82
2021/08/14 10:54:28;;;;;;;;;;;20.50;99.90;;;;;;5083272;28;19954;-82
2021/08/14 10:56:59;;;;;;;;;;;20.50;99.90;;;;;;5063173;28;19969;-83
2021/08/14 10:59:40;;;;;;;;;;;20.50;99.90;;;;;;5077620;28;19920;-83
2021/08/14 11:02:06;;;;;;;;;;;20.40;99.90;;;;;;5071006;28;20303;-83
2021/08/14 11:04:41;;;;;;;;;;;20.40;99.90;;;;;;5035798;28;19920;-82
2021/08/14 11:07:16;;;;;;;;;;;20.50;99.90;;;;;;5056004;28;19924;-82
2021/08/14 11:09:42;;;;;;;;;;;20.60;99.90;;;;;;5068385;28;19955;-82
2021/08/14 11:12:08;;;;;;;;;;;20.60;99.90;;;;;;5045466;28;20373;-82
2021/08/14 11:14:38;;;;;;;;;;;20.50;99.90;;;;;;5070058;28;19927;-83
2021/08/14 11:17:03;;;;;;;;;;;20.30;99.90;;;;;;5052825;28;19955;-83
2021/08/14 11:19:48;;;;;;;;;;;20.20;99.90;;;;;;5055482;28;19971;-82
2021/08/14 11:22:17;;;;;;;;;;;20.30;99.90;;;;;;5040470;28;20300;-82
2021/08/14 11:24:44;;;;;;;;;;;20.30;99.90;;;;;;5052857;28;19928;-83
2021/08/14 11:27:39;;;;;;;;;;;20.20;99.90;;;;;;5057296;28;19947;-82
2021/08/14 11:30:06;;;;;;;;;;;20.20;99.90;;;;;;5050909;28;19920;-83
2021/08/14 11:32:32;;;;;;;;;;;20.20;99.90;;;;;;5069547;28;20035;-82
2021/08/14 11:34:59;;;;;;;;;;;20.20;99.90;;;;;;5053659;28;19927;-82
2021/08/14 11:37:25;;;;;;;;;;;20.30;99.90;;;;;;5073990;28;20093;-83
2021/08/14 11:40:01;;;;;;;;;;;20.30;99.90;;;;;;5092822;28;20034;-83
2021/08/14 11:42:28;;;;;;;;;;;20.30;99.90;;;;;;5064716;28;19920;-82
2021/08/14 11:44:55;;;;;;;;;;;20.40;99.90;;;;;;5069734;28;19973;-83
2021/08/14 11:47:28;;;;;;;;;;;20.50;99.90;;;;;;5064803;28;19962;-83
2021/08/14 11:49:55;;;;;;;;;;;20.50;99.90;;;;;;5084090;28;19924;-82
2021/08/14 11:52:24;;;;;;;;;;;20.50;99.90;;;;;;5068922;28;19947;-82
2021/08/14 11:54:56;;;;;;;;;;;20.40;99.90;;;;;;5092058;28;19928;-83
2021/08/14 11:57:26;;;;;;;;;;;20.30;99.90;;;;;;5070281;28;20351;-82
2021/08/14 11:59:52;;;;;;;;;;;20.30;99.90;;;;;;5070736;28;19917;-83
2021/08/14 12:02:18;;;;;;;;;;;20.40;99.90;;;;;;5053859;28;20368;-82
2021/08/14 12:04:44;;;;;;;;;;;20.40;99.90;;;;;;5042624;28;19928;-82
2021/08/14 12:07:12;;;;;;;;;;;20.50;99.90;;;;;;5065115;28;20338;-82
2021/08/14 12:09:38;;;;;;;;;;;20.50;99.90;;;;;;5087836;28;19924;-82
2021/08/14 12:12:04;;;;;;;;;;;20.60;99.90;;;;;;5076882;28;19924;-82
2021/08/14 12:14:30;;;;;;;;;;;20.60;99.90;;;;;;5057082;28;20015;-82
2021/08/14 12:16:59;;;;;;;;;;;20.50;99.90;;;;;;5044370;28;19925;-82
2021/08/14 12:19:25;;;;;;;;;;;20.50;99.90;;;;;;5071397;28;19963;-82
2021/08/14 12:22:04;;;;;;;;;;;20.60;99.90;;;;;;5044967;28;19983;-82
2021/08/14 12:24:30;;;;;;;;;;;20.60;99.90;;;;;;5072390;28;19928;-82
2021/08/14 12:26:55;;;;;;;;;;;20.60;99.90;;;;;;5071161;28;19932;-83
2021/08/14 12:29:22;;;;;;;;;;;20.60;99.90;;;;;;5065641;28;20019;-82
2021/08/14 12:31:48;;;;;;;;;;;20.60;99.90;;;;;;5081126;28;19963;-83
2021/08/14 12:34:26;;;;;;;;;;;20.60;99.90;;;;;;5073020;28;20449;-83
2021/08/14 12:37:10;;;;;;;;;;;20.70;99.90;;;;;;5069232;28;20387;-82
2021/08/14 12:39:42;;;;;;;;;;;20.80;99.90;;;;;;5062912;28;19951;-82
2021/08/14 12:42:18;;;;;;;;;;;20.80;99.90;;;;;;5091180;28;19974;-82
2021/08/14 12:44:44;;;;;;;;;;;20.60;99.90;;;;;;5090948;28;19956;-83
2021/08/14 12:47:09;;;;;;;;;;;20.60;99.90;;;;;;5052189;28;19962;-82
2021/08/14 12:49:35;;;;;;;;;;;20.60;99.90;;;;;;5056389;28;20668;-82
2021/08/14 12:52:05;;;;;;;;;;;20.60;99.90;;;;;;5064359;28;19964;-83
2021/08/14 12:54:32;;;;;;;;;;;20.60;99.90;;;;;;5053101;28;19925;-83
2021/08/14 12:57:05;;;;;;;;;;;20.50;99.90;;;;;;5051722;28;20280;-83
2021/08/14 12:59:31;;;;;;;;;;;20.60;99.90;;;;;;5052689;28;19951;-83
2021/08/14 13:01:58;;;;;;;;;;;20.70;99.90;;;;;;5061390;28;19933;-83
2021/08/14 13:04:24;;;;;;;;;;;20.80;99.90;;;;;;5049575;28;20026;-83
2021/08/14 13:06:52;;;;;;;;;;;21.00;99.90;;;;;;5068164;28;20096;-81
2021/08/14 13:09:17;;;;;;;;;;;21.00;99.90;;;;;;5042842;28;19956;-82
2021/08/14 13:11:44;;;;;;;;;;;20.80;99.90;;;;;;5063245;28;19924;-82
2021/08/14 13:14:09;;;;;;;;;;;20.70;99.90;;;;;;5052927;28;19924;-82
2021/08/14 13:16:35;;;;;;;;;;;20.80;99.90;;;;;;5069914;28;19924;-82
2021/08/14 13:19:01;;;;;;;;;;;20.90;99.90;;;;;;5012549;28;20019;-82
2021/08/14 13:21:26;;;;;;;;;;;21.00;99.90;;;;;;5040877;28;19920;-82
2021/08/14 13:23:52;;;;;;;;;;;21.00;99.90;;;;;;5070198;28;20370;-83
2021/08/14 13:26:18;;;;;;;;;;;21.10;99.90;;;;;;5031478;28;19927;-82
2021/08/14 13:28:43;;;;;;;;;;;21.10;99.90;;;;;;5051345;28;19928;-82
2021/08/14 13:31:11;;;;;;;;;;;21.20;99.90;;;;;;5050915;28;19931;-83
2021/08/14 13:33:37;;;;;;;;;;;21.20;99.90;;;;;;5055261;28;19931;-83
2021/08/14 13:36:03;;;;;;;;;;;21.20;99.90;;;;;;5037482;28;19921;-82
2021/08/14 13:38:28;;;;;;;;;;;21.10;99.90;;;;;;5038979;28;19925;-83
2021/08/14 13:40:54;;;;;;;;;;;21.00;99.90;;;;;;5052148;28;19924;-83
2021/08/14 13:43:20;;;;;;;;;;;21.00;99.90;;;;;;5042341;28;19924;-81
2021/08/14 13:45:45;;;;;;;;;;;20.90;99.90;;;;;;5048205;28;19924;-83
2021/08/14 13:48:11;;;;;;;;;;;20.90;99.90;;;;;;5025079;28;19924;-83
2021/08/14 13:50:37;;;;;;;;;;;21.00;99.90;;;;;;5053627;28;19995;-83
2021/08/14 13:53:03;;;;;;;;;;;21.00;99.90;;;;;;5060147;28;19935;-82
2021/08/14 13:55:28;;;;;;;;;;;21.10;99.90;;;;;;5044852;28;19927;-82
2021/08/14 13:57:54;;;;;;;;;;;21.10;99.90;;;;;;5027994;28;19970;-82
2021/08/14 14:00:20;;;;;;;;;;;21.20;99.90;;;;;;5031139;28;20278;-83
2021/08/14 14:02:46;;;;;;;;;;;21.10;99.90;;;;;;5002915;28;20540;-83
2021/08/14 14:05:13;;;;;;;;;;;21.10;99.90;;;;;;5042986;28;19924;-82
2021/08/14 14:07:39;;;;;;;;;;;21.20;99.90;;;;;;5064400;28;20018;-83
2021/08/14 14:10:05;;;;;;;;;;;21.30;99.90;;;;;;5038368;28;19924;-82
2021/08/14 14:12:31;;;;;;;;;;;21.40;99.90;;;;;;5039354;28;19931;-82
2021/08/14 14:14:57;;;;;;;;;;;21.30;99.90;;;;;;5051891;28;19925;-83
2021/08/14 14:17:22;;;;;;;;;;;21.40;99.90;;;;;;5034631;28;19928;-82
2021/08/14 14:19:48;;;;;;;;;;;21.40;99.90;;;;;;5050668;28;19959;-82